地図

経路データ

SID SEASON NUMBER BASIN SUBBASIN NAME ISO_TIME NATURE LAT LON WMO_WIND WMO_PRES WMO_AGENCY TRACK_TYPE DIST2LAND LANDFALL IFLAG USA_AGENCY USA_ATCF_ID USA_LAT USA_LON USA_RECORD USA_STATUS USA_WIND USA_PRES USA_SSHS USA_R34_NE USA_R34_SE USA_R34_SW USA_R34_NW USA_R50_NE USA_R50_SE USA_R50_SW USA_R50_NW USA_R64_NE USA_R64_SE USA_R64_SW USA_R64_NW USA_POCI USA_ROCI USA_RMW USA_EYE TOKYO_LAT TOKYO_LON TOKYO_GRADE TOKYO_WIND TOKYO_PRES TOKYO_R50_DIR TOKYO_R50_LONG TOKYO_R50_SHORT TOKYO_R30_DIR TOKYO_R30_LONG TOKYO_R30_SHORT TOKYO_LAND CMA_LAT CMA_LON CMA_CAT CMA_WIND CMA_PRES HKO_LAT HKO_LON HKO_CAT HKO_WIND HKO_PRES NEWDELHI_LAT NEWDELHI_LON NEWDELHI_GRADE NEWDELHI_WIND NEWDELHI_PRES NEWDELHI_CI NEWDELHI_DP NEWDELHI_POCI REUNION_LAT REUNION_LON REUNION_TYPE REUNION_WIND REUNION_PRES REUNION_TNUM REUNION_CI REUNION_RMW REUNION_R34_NE REUNION_R34_SE REUNION_R34_SW REUNION_R34_NW REUNION_R50_NE REUNION_R50_SE REUNION_R50_SW REUNION_R50_NW REUNION_R64_NE REUNION_R64_SE REUNION_R64_SW REUNION_R64_NW BOM_LAT BOM_LON BOM_TYPE BOM_WIND BOM_PRES BOM_TNUM BOM_CI BOM_RMW BOM_R34_NE BOM_R34_SE BOM_R34_SW BOM_R34_NW BOM_R50_NE BOM_R50_SE BOM_R50_SW BOM_R50_NW BOM_R64_NE BOM_R64_SE BOM_R64_SW BOM_R64_NW BOM_ROCI BOM_POCI BOM_EYE BOM_POS_METHOD BOM_PRES_METHOD NADI_LAT NADI_LON NADI_CAT NADI_WIND NADI_PRES WELLINGTON_LAT WELLINGTON_LON WELLINGTON_WIND WELLINGTON_PRES DS824_LAT DS824_LON DS824_STAGE DS824_WIND DS824_PRES TD9636_LAT TD9636_LON TD9636_STAGE TD9636_WIND TD9636_PRES TD9635_LAT TD9635_LON TD9635_WIND TD9635_PRES TD9635_ROCI NEUMANN_LAT NEUMANN_LON NEUMANN_CLASS NEUMANN_WIND NEUMANN_PRES MLC_LAT MLC_LON MLC_CLASS MLC_WIND MLC_PRES USA_GUST BOM_GUST BOM_GUST_PER REUNION_GUST REUNION_GUST_PER USA_SEAHGT USA_SEARAD_NE USA_SEARAD_SE USA_SEARAD_SW USA_SEARAD_NW STORM_SPEED STORM_DIR
2019320N09264 2019 98 EP MM NOT_NAMED 2019-11-15 12:00:00 DS 9.00000 -95.7000 25 1008 hurdat_epa main 720 720 O_____________ hurdat_epa EP212019 9.00000 -95.7000 LO 25 1008 -3 1010 150 90 10 277
2019320N09264 2019 98 EP MM NOT_NAMED 2019-11-15 15:00:00 DS 9.06264 -96.1999 main 729 727 P_____________ EP212019 9.06264 -96.1999 LO 25 1008 -3 1010 150 90 10 276
2019320N09264 2019 98 EP MM NOT_NAMED 2019-11-15 18:00:00 DS 9.10000 -96.7000 25 1008 hurdat_epa main 727 727 O_____________ hurdat_epa EP212019 9.10000 -96.7000 LO 25 1008 -3 1010 150 90 10 272
2019320N09264 2019 98 EP MM NOT_NAMED 2019-11-15 21:00:00 DS 9.09993 -97.2001 main 730 730 P_____________ EP212019 9.09993 -97.2001 LO 27 1007 -3 1010 125 65 10 270
2019320N09264 2019 98 EP MM NOT_NAMED 2019-11-16 00:00:00 TS 9.10000 -97.7000 30 1006 hurdat_epa main 737 737 O_____________ hurdat_epa EP212019 9.10000 -97.7000 TD 30 1006 -1 1010 100 40 10 273
2019320N09264 2019 98 EP MM NOT_NAMED 2019-11-16 03:00:00 TS 9.14993 -98.2000 main 748 737 P_____________ EP212019 9.14993 -98.2000 TD 30 1006 -1 1010 100 32 10 276
2019320N09264 2019 98 EP MM NOT_NAMED 2019-11-16 06:00:00 TS 9.20000 -98.7000 30 1006 hurdat_epa main 752 752 O_____________ hurdat_epa EP212019 9.20000 -98.7000 TD 30 1006 -1 1010 100 25 40 10 272
2019320N09264 2019 98 EP MM NOT_NAMED 2019-11-16 09:00:00 TS 9.19243 -99.2001 main 770 770 P_____________ EP212019 9.19243 -99.2001 TD 30 1006 -1 1010 100 25 10 270
2019320N09264 2019 98 EP MM NOT_NAMED 2019-11-16 12:00:00 TS 9.20000 -99.7000 30 1006 hurdat_epa main 788 787 O_____________ hurdat_epa EP212019 9.20000 -99.7000 TD 30 1006 -1 1010 100 25 40 10 275
2019320N09264 2019 98 EP MM NOT_NAMED 2019-11-16 15:00:00 TS 9.28499 -100.215 main 794 794 P_____________ EP212019 9.28499 -100.215 TD 30 1006 -1 1010 100 32 10 281
2019320N09264 2019 98 EP MM NOT_NAMED 2019-11-16 18:00:00 TS 9.40000 -100.700 30 1006 hurdat_epa main 803 803 O_____________ hurdat_epa EP212019 9.40000 -100.700 TD 30 1006 -1 1010 100 40 40 9 283
2019320N09264 2019 98 EP MM NOT_NAMED 2019-11-16 21:00:00 TS 9.48492 -101.123 main 808 808 P_____________ EP212019 9.48492 -101.123 TD 30 1006 -1 1009 100 40 8 284
2019320N09264 2019 98 EP MM NOT_NAMED 2019-11-17 00:00:00 TS 9.60000 -101.500 30 1006 hurdat_epa main 813 805 O_____________ hurdat_epa EP212019 9.60000 -101.500 TD 30 1006 -1 1009 100 40 40 8 292
2019320N09264 2019 98 EP MM NOT_NAMED 2019-11-17 03:00:00 TS 9.78494 -101.858 main 808 793 P_____________ EP212019 9.78494 -101.858 TD 27 1006 -1 1009 100 40 8 300
2019320N09264 2019 98 EP MM NOT_NAMED 2019-11-17 06:00:00 TS 10.0000 -102.200 25 1007 hurdat_epa main 797 788 O_____________ hurdat_epa EP212019 10.0000 -102.200 TD 25 1007 -1 1010 100 40 35 8 300
2019320N09264 2019 98 EP MM NOT_NAMED 2019-11-17 09:00:00 TS 10.1850 -102.550 main 792 780 P_____________ EP212019 10.1850 -102.550 TD 25 1007 -1 1010 100 40 8 300
2019320N09264 2019 98 EP MM NOT_NAMED 2019-11-17 12:00:00 TS 10.4000 -102.900 25 1007 hurdat_epa main 785 770 O_____________ hurdat_epa EP212019 10.4000 -102.900 TD 25 1007 -1 1010 100 40 35 9 305
2019320N09264 2019 98 EP MM NOT_NAMED 2019-11-17 15:00:00 TS 10.6775 -103.258 main 776 755 P_____________ EP212019 10.6775 -103.258 TD 25 1007 -1 1010 100 40 9 311
2019320N09264 2019 98 EP MM NOT_NAMED 2019-11-17 18:00:00 TS 11.0000 -103.600 25 1007 hurdat_epa main 755 732 O_____________ hurdat_epa EP212019 11.0000 -103.600 TD 25 1007 -1 1010 100 40 35 9 317
2019320N09264 2019 98 EP MM NOT_NAMED 2019-11-17 21:00:00 TS 11.3574 -103.908 main 726 710 P_____________ EP212019 11.3574 -103.908 TD 25 1007 -1 1010 100 40 9 320
2019320N09264 2019 98 EP MM NOT_NAMED 2019-11-18 00:00:00 TS 11.7000 -104.200 25 1007 hurdat_epa main 710 697 O_____________ hurdat_epa EP212019 11.7000 -104.200 TD 25 1007 -1 1010 100 40 35 8 317
2019320N09264 2019 98 EP MM NOT_NAMED 2019-11-18 03:00:00 TS 11.9726 -104.497 main 697 687 P_____________ EP212019 11.9726 -104.497 TD 25 1007 -1 1010 100 45 8 310
2019320N09264 2019 98 EP MM NOT_NAMED 2019-11-18 06:00:00 TS 12.2000 -104.800 25 1007 hurdat_epa main 690 O_____________ hurdat_epa EP212019 12.2000 -104.800 TD 25 1007 -1 1010 100 50 35 7 308

IBTrACS Databaseについて

本データベースは、米国NOAAが公開する1842年以降の世界の熱帯低気圧のベストトラックデータアーカイブInternational Best Track Archive for Climate Stewardship (IBTrACS)を、ウェブで閲覧しやすい形式に変換したものです。

最終更新日:2021-10-21